Time;durP1;ratioP1;P1;durP2;ratioP2;P2;SDS_P1;SDS_P2;PMS_P1;PMS_P2;Temp;Humidity;BMP_temperature;BMP_pressure;BME280_temperature;BME280_humidity;BME280_pressure;Samples;Min_cycle;Max_cycle;Signal;HPM_P1;HPM_P2
2021/09/09 00:01:13;;;;;;;16.13;11.80;;;;;;;;;;5060184;28;20082;-68
2021/09/09 00:03:39;;;;;;;15.75;11.48;;;;;;;;;;5058897;28;20060;-74
2021/09/09 00:06:05;;;;;;;18.27;11.77;;;;;;;;;;5059548;28;20021;-76
2021/09/09 00:08:31;;;;;;;16.50;10.98;;;;;;;;;;5059600;28;20047;-72
2021/09/09 00:10:57;;;;;;;17.58;12.35;;;;;;;;;;5059124;28;20059;-75
2021/09/09 00:13:23;;;;;;;17.73;10.55;;;;;;;;;;5059003;28;20025;-74
2021/09/09 00:15:49;;;;;;;17.23;11.35;;;;;;;;;;5058779;28;20036;-73
2021/09/09 00:18:15;;;;;;;15.00;11.00;;;;;;;;;;5058456;28;20025;-73
2021/09/09 00:20:42;;;;;;;15.95;10.80;;;;;;;;;;5058983;28;20392;-74
2021/09/09 00:23:08;;;;;;;13.52;10.35;;;;;;;;;;5058744;28;20028;-69
2021/09/09 00:25:34;;;;;;;16.30;10.15;;;;;;;;;;5058577;28;20534;-71
2021/09/09 00:28:00;;;;;;;14.52;10.60;;;;;;;;;;5058290;28;20024;-71
2021/09/09 00:30:26;;;;;;;17.30;10.27;;;;;;;;;;5057943;28;20021;-71
2021/09/09 00:32:52;;;;;;;14.60;10.48;;;;;;;;;;5057947;28;20049;-75
2021/09/09 00:35:18;;;;;;;13.32;9.70;;;;;;;;;;5059121;28;20055;-74
2021/09/09 00:37:44;;;;;;;12.73;9.65;;;;;;;;;;5077629;28;20052;-69
2021/09/09 00:40:11;;;;;;;12.60;9.57;;;;;;;;;;5078075;28;20081;-72
2021/09/09 00:42:37;;;;;;;13.20;9.38;;;;;;;;;;5078152;28;20031;-73
2021/09/09 00:45:04;;;;;;;13.30;9.07;;;;;;;;;;5077984;28;20060;-67
2021/09/09 00:47:30;;;;;;;11.85;9.13;;;;;;;;;;5077823;28;20042;-74
2021/09/09 00:49:56;;;;;;;13.75;10.20;;;;;;;;;;5078227;28;20024;-72
2021/09/09 00:52:22;;;;;;;12.90;9.10;;;;;;;;;;5078306;28;20032;-74
2021/09/09 00:54:48;;;;;;;12.80;9.45;;;;;;;;;;5077536;28;20043;-75
2021/09/09 00:57:15;;;;;;;13.70;8.93;;;;;;;;;;5078153;28;20379;-73
2021/09/09 00:59:41;;;;;;;10.90;8.88;;;;;;;;;;5077852;28;20363;-71
2021/09/09 01:02:07;;;;;;;11.80;9.20;;;;;;;;;;5077215;28;20025;-75
2021/09/09 01:04:34;;;;;;;12.43;9.05;;;;;;;;;;5077585;28;20025;-75
2021/09/09 01:07:00;;;;;;;14.00;9.88;;;;;;;;;;5077682;28;20036;-67
2021/09/09 01:09:26;;;;;;;10.73;8.43;;;;;;;;;;5077672;28;20024;-73
2021/09/09 01:11:52;;;;;;;12.30;8.38;;;;;;;;;;5077485;28;20029;-74
2021/09/09 01:14:19;;;;;;;12.02;8.55;;;;;;;;;;5077793;28;20052;-72
2021/09/09 01:16:46;;;;;;;13.02;9.45;;;;;;;;;;5076243;28;20433;-76
2021/09/09 01:19:13;;;;;;;12.98;8.77;;;;;;;;;;5077484;28;20021;-75
2021/09/09 01:21:39;;;;;;;14.90;9.15;;;;;;;;;;5077439;28;20108;-71
2021/09/09 01:24:11;;;;;;;11.77;8.60;;;;;;;;;;5077339;28;20386;-73
2021/09/09 01:26:47;;;;;;;12.15;8.65;;;;;;;;;;5077686;28;20024;-69
2021/09/09 01:29:13;;;;;;;13.38;8.95;;;;;;;;;;5076455;28;20040;-72
2021/09/09 01:31:39;;;;;;;10.05;8.55;;;;;;;;;;5057380;28;20472;-69
2021/09/09 01:34:06;;;;;;;11.20;8.43;;;;;;;;;;5057101;28;20057;-73
2021/09/09 01:36:33;;;;;;;14.82;9.38;;;;;;;;;;5057738;28;20037;-72
2021/09/09 01:38:59;;;;;;;12.25;8.80;;;;;;;;;;5057803;28;20424;-71
2021/09/09 01:41:25;;;;;;;13.35;9.05;;;;;;;;;;5057210;28;20048;-74
2021/09/09 01:43:51;;;;;;;15.70;9.73;;;;;;;;;;5057550;28;20043;-75
2021/09/09 01:46:17;;;;;;;12.40;8.73;;;;;;;;;;5056927;28;20029;-72
2021/09/09 01:48:44;;;;;;;13.02;9.80;;;;;;;;;;5056595;28;20021;-73
2021/09/09 01:51:10;;;;;;;15.65;9.65;;;;;;;;;;5057439;28;20025;-71
2021/09/09 01:53:36;;;;;;;16.20;9.98;;;;;;;;;;5057309;28;20379;-70
2021/09/09 01:56:02;;;;;;;11.93;9.73;;;;;;;;;;5057125;28;20092;-75
2021/09/09 01:58:28;;;;;;;13.98;9.65;;;;;;;;;;5057395;28;20028;-71
2021/09/09 02:00:57;;;;;;;14.75;10.00;;;;;;;;;;5057012;28;20025;-73
2021/09/09 02:03:24;;;;;;;15.27;10.68;;;;;;;;;;5056563;28;20049;-71
2021/09/09 02:05:50;;;;;;;13.52;10.32;;;;;;;;;;5057379;28;20032;-71
2021/09/09 02:08:16;;;;;;;14.80;10.80;;;;;;;;;;5056910;28;20017;-68
2021/09/09 02:10:42;;;;;;;15.15;11.23;;;;;;;;;;5057352;28;20060;-71
2021/09/09 02:13:08;;;;;;;13.93;10.55;;;;;;;;;;5057808;28;20495;-72
2021/09/09 02:15:34;;;;;;;14.43;10.63;;;;;;;;;;5057049;28;20022;-69
2021/09/09 02:18:00;;;;;;;13.35;10.18;;;;;;;;;;5057245;28;20056;-73
2021/09/09 02:20:26;;;;;;;17.02;11.15;;;;;;;;;;5056687;28;20036;-71
2021/09/09 02:22:52;;;;;;;15.30;10.10;;;;;;;;;;5056906;28;20471;-69
2021/09/09 02:25:19;;;;;;;16.42;10.63;;;;;;;;;;5057100;28;20096;-69
2021/09/09 02:27:45;;;;;;;15.25;10.60;;;;;;;;;;5056490;28;20601;-70
2021/09/09 02:30:11;;;;;;;15.80;11.10;;;;;;;;;;5056578;28;20025;-69
2021/09/09 02:32:37;;;;;;;15.85;11.25;;;;;;;;;;5056461;28;20029;-72
2021/09/09 02:35:04;;;;;;;13.52;10.05;;;;;;;;;;5056378;28;20025;-71
2021/09/09 02:37:30;;;;;;;13.50;9.73;;;;;;;;;;5056944;28;20029;-69
2021/09/09 02:39:56;;;;;;;12.45;9.68;;;;;;;;;;5056571;28;20025;-69
2021/09/09 02:42:22;;;;;;;11.85;9.07;;;;;;;;;;5056926;28;20025;-72
2021/09/09 02:44:49;;;;;;;12.82;9.70;;;;;;;;;;5057160;28;20025;-68
2021/09/09 02:47:15;;;;;;;15.23;10.00;;;;;;;;;;5056747;28;20017;-70
2021/09/09 02:49:41;;;;;;;16.30;10.80;;;;;;;;;;5057086;28;20056;-73
2021/09/09 02:52:07;;;;;;;14.35;11.02;;;;;;;;;;5055385;28;20421;-70
2021/09/09 02:54:33;;;;;;;12.98;10.48;;;;;;;;;;5055416;28;20061;-73
2021/09/09 02:56:59;;;;;;;16.23;11.82;;;;;;;;;;5055076;28;20085;-73
2021/09/09 02:59:28;;;;;;;17.58;12.38;;;;;;;;;;5055372;28;20064;-68
2021/09/09 03:01:54;;;;;;;19.88;12.25;;;;;;;;;;5055490;28;20475;-73
2021/09/09 03:04:20;;;;;;;16.08;11.18;;;;;;;;;;5055025;28;20403;-71
2021/09/09 03:06:46;;;;;;;15.85;11.98;;;;;;;;;;5055435;28;20075;-70
2021/09/09 03:09:12;;;;;;;21.98;13.88;;;;;;;;;;5054981;28;20021;-72
2021/09/09 03:11:38;;;;;;;20.38;14.07;;;;;;;;;;5055334;28;20537;-73
2021/09/09 03:14:04;;;;;;;25.10;15.50;;;;;;;;;;5055125;28;20052;-65
2021/09/09 03:16:30;;;;;;;23.90;15.60;;;;;;;;;;5055216;28;20033;-71
2021/09/09 03:18:56;;;;;;;23.77;15.82;;;;;;;;;;5055183;28;20029;-72
2021/09/09 03:21:22;;;;;;;26.40;17.55;;;;;;;;;;5055218;28;20033;-71
2021/09/09 03:23:49;;;;;;;23.30;16.42;;;;;;;;;;5055055;28;20029;-72
2021/09/09 03:26:15;;;;;;;24.73;16.58;;;;;;;;;;5055582;28;20494;-71
2021/09/09 03:28:41;;;;;;;30.30;18.23;;;;;;;;;;5055306;28;20114;-69
2021/09/09 03:31:07;;;;;;;25.40;17.13;;;;;;;;;;5055312;28;20427;-73
2021/09/09 03:33:33;;;;;;;25.35;17.17;;;;;;;;;;5055259;28;20024;-72
2021/09/09 03:35:59;;;;;;;31.55;17.48;;;;;;;;;;5058946;28;20054;-68
2021/09/09 03:38:25;;;;;;;27.98;16.52;;;;;;;;;;5065541;28;20506;-72
2021/09/09 03:40:52;;;;;;;32.08;18.92;;;;;;;;;;5075421;28;20037;-71
2021/09/09 03:43:18;;;;;;;27.55;18.40;;;;;;;;;;5075056;28;20161;-71
2021/09/09 03:45:44;;;;;;;28.92;18.00;;;;;;;;;;5075384;28;20120;-72
2021/09/09 03:48:10;;;;;;;29.33;18.25;;;;;;;;;;5074768;28;20021;-71
2021/09/09 03:50:36;;;;;;;24.95;16.25;;;;;;;;;;5074951;28;20103;-70
2021/09/09 03:53:02;;;;;;;23.52;16.52;;;;;;;;;;5074493;28;20028;-71
2021/09/09 03:55:28;;;;;;;27.55;17.02;;;;;;;;;;5074896;28;20491;-71
2021/09/09 03:57:54;;;;;;;25.05;17.23;;;;;;;;;;5074986;28;20098;-70
2021/09/09 04:00:20;;;;;;;25.75;18.23;;;;;;;;;;5074691;28;20035;-72
2021/09/09 04:02:46;;;;;;;27.10;17.42;;;;;;;;;;5074813;28;20041;-72
2021/09/09 04:05:12;;;;;;;29.42;18.50;;;;;;;;;;5075416;28;20032;-70
2021/09/09 04:07:39;;;;;;;31.70;18.10;;;;;;;;;;5074916;28;20032;-70
2021/09/09 04:10:05;;;;;;;23.80;16.92;;;;;;;;;;5074985;28;20043;-70
2021/09/09 04:12:31;;;;;;;25.17;18.40;;;;;;;;;;5078664;28;20036;-70
2021/09/09 04:14:58;;;;;;;33.60;18.45;;;;;;;;;;5076906;28;20444;-73
2021/09/09 04:17:24;;;;;;;31.67;18.98;;;;;;;;;;5078549;28;20108;-70
2021/09/09 04:19:50;;;;;;;30.05;19.02;;;;;;;;;;5078498;28;20028;-67
2021/09/09 04:22:16;;;;;;;31.98;18.67;;;;;;;;;;5078310;28;20092;-74
2021/09/09 04:24:42;;;;;;;33.28;20.17;;;;;;;;;;5078063;28;20035;-70
2021/09/09 04:27:08;;;;;;;31.58;19.98;;;;;;;;;;5077697;28;20024;-71
2021/09/09 04:29:35;;;;;;;33.13;19.95;;;;;;;;;;5072307;28;20079;-72
2021/09/09 04:32:01;;;;;;;28.05;18.13;;;;;;;;;;5057938;28;20029;-71
2021/09/09 04:34:27;;;;;;;27.75;17.88;;;;;;;;;;5057687;28;20021;-72
2021/09/09 04:36:53;;;;;;;27.67;18.13;;;;;;;;;;5057618;28;20112;-72
2021/09/09 04:39:19;;;;;;;30.23;18.40;;;;;;;;;;5057701;28;20040;-71
2021/09/09 04:41:45;;;;;;;28.17;19.30;;;;;;;;;;5057267;28;20025;-73
2021/09/09 04:44:11;;;;;;;31.75;19.38;;;;;;;;;;5057327;28;20040;-73
2021/09/09 04:46:37;;;;;;;34.22;20.00;;;;;;;;;;5057357;28;20025;-68
2021/09/09 04:49:03;;;;;;;36.90;20.00;;;;;;;;;;5057024;28;20021;-72
2021/09/09 04:51:29;;;;;;;30.67;18.85;;;;;;;;;;5057339;28;20025;-71
2021/09/09 04:53:55;;;;;;;33.50;19.63;;;;;;;;;;5057745;28;20033;-71
2021/09/09 04:56:21;;;;;;;36.45;19.60;;;;;;;;;;5057228;28;20056;-72
2021/09/09 04:58:47;;;;;;;31.45;18.50;;;;;;;;;;5057450;28;20108;-73
2021/09/09 05:01:13;;;;;;;30.52;17.83;;;;;;;;;;5057097;28;20029;-67
2021/09/09 05:03:39;;;;;;;31.65;18.55;;;;;;;;;;5056679;28;20123;-71
2021/09/09 05:06:06;;;;;;;28.33;17.17;;;;;;;;;;5057168;28;20021;-74
2021/09/09 05:08:32;;;;;;;31.80;17.88;;;;;;;;;;5056995;28;20356;-70
2021/09/09 05:10:58;;;;;;;31.88;18.98;;;;;;;;;;5056992;28;20092;-71
2021/09/09 05:13:24;;;;;;;31.90;18.90;;;;;;;;;;5057025;28;20021;-73
2021/09/09 05:15:50;;;;;;;32.50;20.38;;;;;;;;;;5056970;28;20029;-68
2021/09/09 05:18:16;;;;;;;31.88;18.85;;;;;;;;;;5057042;28;20036;-71
2021/09/09 05:20:42;;;;;;;27.88;17.80;;;;;;;;;;5057128;28;20495;-71
2021/09/09 05:23:08;;;;;;;27.70;17.88;;;;;;;;;;5057554;28;20029;-69
2021/09/09 05:25:34;;;;;;;31.98;18.70;;;;;;;;;;5057678;28;20096;-70
2021/09/09 05:28:00;;;;;;;34.65;19.50;;;;;;;;;;5057029;28;20026;-72
2021/09/09 05:30:29;;;;;;;40.33;22.98;;;;;;;;;;5057109;28;20503;-70
2021/09/09 05:32:55;;;;;;;37.80;21.00;;;;;;;;;;5056820;28;20021;-72
2021/09/09 05:35:21;;;;;;;41.33;23.15;;;;;;;;;;5057044;28;20037;-72
2021/09/09 05:37:47;;;;;;;40.45;23.30;;;;;;;;;;5057240;28;20450;-72
2021/09/09 05:40:13;;;;;;;50.78;23.85;;;;;;;;;;5056786;28;20105;-72
2021/09/09 05:42:39;;;;;;;50.60;24.98;;;;;;;;;;5057090;28;20036;-72
2021/09/09 05:45:06;;;;;;;53.00;24.25;;;;;;;;;;5056895;28;20049;-69
2021/09/09 05:47:32;;;;;;;50.22;24.73;;;;;;;;;;5056849;28;20021;-71
2021/09/09 05:49:58;;;;;;;52.58;25.45;;;;;;;;;;5056864;28;20024;-74
2021/09/09 05:52:24;;;;;;;56.72;24.83;;;;;;;;;;5056541;28;20028;-68
2021/09/09 05:54:50;;;;;;;55.90;25.65;;;;;;;;;;5056225;28;20021;-70
2021/09/09 05:57:16;;;;;;;54.03;26.52;;;;;;;;;;5056991;28;20025;-71
2021/09/09 05:59:42;;;;;;;52.70;24.83;;;;;;;;;;5056995;28;20052;-67
2021/09/09 06:02:13;;;;;;;60.10;27.88;;;;;;;;;;5056447;28;20028;-70
2021/09/09 06:04:39;;;;;;;57.17;27.33;;;;;;;;;;5056272;28;20166;-74
2021/09/09 06:07:05;;;;;;;53.20;26.35;;;;;;;;;;5055882;28;20025;-74
2021/09/09 06:09:31;;;;;;;57.95;27.38;;;;;;;;;;5056033;28;20503;-73
2021/09/09 06:11:57;;;;;;;60.25;28.38;;;;;;;;;;5055657;28;20360;-71
2021/09/09 06:14:23;;;;;;;64.20;28.42;;;;;;;;;;5056162;28;20021;-72
2021/09/09 06:16:50;;;;;;;64.50;29.33;;;;;;;;;;5056093;28;20029;-71
2021/09/09 06:19:16;;;;;;;62.42;27.73;;;;;;;;;;5056340;28;20029;-70
2021/09/09 06:21:42;;;;;;;61.60;28.90;;;;;;;;;;5057359;28;20033;-68
2021/09/09 06:24:08;;;;;;;74.18;31.30;;;;;;;;;;5056993;28;20036;-73
2021/09/09 06:26:34;;;;;;;63.08;28.33;;;;;;;;;;5055662;28;20554;-72
2021/09/09 06:29:01;;;;;;;62.80;28.13;;;;;;;;;;5057004;28;20068;-71
2021/09/09 06:31:28;;;;;;;65.88;29.23;;;;;;;;;;5056708;28;20029;-68
2021/09/09 06:33:54;;;;;;;71.13;28.05;;;;;;;;;;5056113;28;20021;-72
2021/09/09 06:36:20;;;;;;;77.93;29.10;;;;;;;;;;5055514;28;20104;-71
2021/09/09 06:38:46;;;;;;;61.08;27.80;;;;;;;;;;5055425;28;20479;-69
2021/09/09 06:41:12;;;;;;;61.17;27.88;;;;;;;;;;5053967;28;20035;-70
2021/09/09 06:43:38;;;;;;;61.60;26.80;;;;;;;;;;5055638;28;20059;-71
2021/09/09 06:46:04;;;;;;;64.28;28.83;;;;;;;;;;5056608;28;20442;-68
2021/09/09 06:48:31;;;;;;;60.63;29.13;;;;;;;;;;5066921;28;20077;-71
2021/09/09 06:50:57;;;;;;;61.97;27.27;;;;;;;;;;5076879;28;20020;-71
2021/09/09 06:53:23;;;;;;;61.30;26.65;;;;;;;;;;5076108;28;20024;-70
2021/09/09 06:55:50;;;;;;;59.58;28.80;;;;;;;;;;5076041;28;20063;-72
2021/09/09 06:58:16;;;;;;;59.75;25.75;;;;;;;;;;5075960;28;20103;-71
2021/09/09 07:00:42;;;;;;;61.03;28.20;;;;;;;;;;5076646;28;20036;-69
2021/09/09 07:03:08;;;;;;;58.83;29.02;;;;;;;;;;5075714;28;20051;-73
2021/09/09 07:05:34;;;;;;;62.47;28.45;;;;;;;;;;5076714;28;20031;-71
2021/09/09 07:08:00;;;;;;;60.05;26.73;;;;;;;;;;5077320;28;20021;-70
2021/09/09 07:10:26;;;;;;;53.30;25.58;;;;;;;;;;5076978;28;20028;-71
2021/09/09 07:12:53;;;;;;;53.28;26.50;;;;;;;;;;5076180;28;20025;-70
2021/09/09 07:15:19;;;;;;;54.80;26.02;;;;;;;;;;5077551;28;20596;-67
2021/09/09 07:17:45;;;;;;;55.92;26.17;;;;;;;;;;5076567;28;20029;-73
2021/09/09 07:20:11;;;;;;;53.28;25.85;;;;;;;;;;5077609;28;20033;-71
2021/09/09 07:22:37;;;;;;;53.30;26.73;;;;;;;;;;5075754;28;20028;-68
2021/09/09 07:25:04;;;;;;;52.13;24.60;;;;;;;;;;5074924;28;20023;-72
2021/09/09 07:27:30;;;;;;;44.60;23.52;;;;;;;;;;5075969;28;20021;-73
2021/09/09 07:29:56;;;;;;;47.47;23.13;;;;;;;;;;5068303;28;20017;-69
2021/09/09 07:32:23;;;;;;;42.40;21.40;;;;;;;;;;5055530;28;20468;-73
2021/09/09 07:34:49;;;;;;;37.63;18.65;;;;;;;;;;5055471;28;20025;-71
2021/09/09 07:37:15;;;;;;;37.38;18.77;;;;;;;;;;5055752;28;20029;-69
2021/09/09 07:39:42;;;;;;;34.13;19.85;;;;;;;;;;5055612;28;20037;-74
2021/09/09 07:42:08;;;;;;;36.05;19.00;;;;;;;;;;5056247;28;20437;-71
2021/09/09 07:44:34;;;;;;;42.28;20.70;;;;;;;;;;5055891;28;20108;-67
2021/09/09 07:47:01;;;;;;;41.90;20.73;;;;;;;;;;5059147;28;20380;-71
2021/09/09 07:49:28;;;;;;;37.15;19.65;;;;;;;;;;5059227;28;20025;-71
2021/09/09 07:51:54;;;;;;;36.45;20.30;;;;;;;;;;5059604;28;20023;-67
2021/09/09 07:54:20;;;;;;;33.47;18.77;;;;;;;;;;5060088;28;20048;-73
2021/09/09 07:56:50;;;;;;;33.55;18.60;;;;;;;;;;5060238;28;20025;-70
2021/09/09 07:59:16;;;;;;;33.15;17.10;;;;;;;;;;5060364;28;20089;-72
2021/09/09 08:01:45;;;;;;;32.53;17.83;;;;;;;;;;5059293;28;20029;-67
2021/09/09 08:04:16;;;;;;;36.00;18.80;;;;;;;;;;5058647;28;20049;-73
2021/09/09 08:06:45;;;;;;;31.38;17.17;;;;;;;;;;5058761;28;20033;-73
2021/09/09 08:09:12;;;;;;;32.28;17.08;;;;;;;;;;5058496;28;20159;-72
2021/09/09 08:11:38;;;;;;;30.27;17.35;;;;;;;;;;5059198;28;20143;-72
2021/09/09 08:14:04;;;;;;;32.78;17.70;;;;;;;;;;5057320;28;20041;-65
2021/09/09 08:16:31;;;;;;;33.17;17.67;;;;;;;;;;5058505;28;20380;-73
2021/09/09 08:18:57;;;;;;;30.77;16.52;;;;;;;;;;5058608;28;20032;-70
2021/09/09 08:21:23;;;;;;;25.30;15.32;;;;;;;;;;5058115;28;20041;-71
2021/09/09 08:23:49;;;;;;;27.15;15.98;;;;;;;;;;5058227;28;20083;-74
2021/09/09 08:26:15;;;;;;;28.83;15.05;;;;;;;;;;5058364;28;20017;-71
2021/09/09 08:28:41;;;;;;;23.92;14.32;;;;;;;;;;5059141;28;20025;-71
2021/09/09 08:31:07;;;;;;;29.25;16.33;;;;;;;;;;5076877;28;20067;-74
2021/09/09 08:33:34;;;;;;;21.50;11.60;;;;;;;;;;5073658;28;20032;-69
2021/09/09 08:36:04;;;;;;;24.30;13.85;;;;;;;;;;5058831;28;20538;-68
2021/09/09 08:38:30;;;;;;;21.38;12.07;;;;;;;;;;5057736;28;20031;-73
2021/09/09 08:40:56;;;;;;;21.23;13.23;;;;;;;;;;5057672;28;20085;-71
2021/09/09 08:43:22;;;;;;;20.17;12.88;;;;;;;;;;5057955;28;20025;-68
2021/09/09 08:45:51;;;;;;;22.10;12.32;;;;;;;;;;5060919;28;20061;-72
2021/09/09 08:48:17;;;;;;;22.98;13.10;;;;;;;;;;5064725;28;20083;-73
2021/09/09 08:50:44;;;;;;;26.73;15.38;;;;;;;;;;5059825;28;20016;-73
2021/09/09 08:53:10;;;;;;;27.08;14.48;;;;;;;;;;5065243;28;20048;-70
2021/09/09 08:55:36;;;;;;;27.33;16.60;;;;;;;;;;5068782;28;20025;-73
2021/09/09 08:58:05;;;;;;;30.35;15.68;;;;;;;;;;5070102;28;20025;-73
2021/09/09 09:00:31;;;;;;;29.13;16.80;;;;;;;;;;5064772;28;20024;-68
2021/09/09 09:02:57;;;;;;;31.17;16.05;;;;;;;;;;5063903;28;20037;-71
2021/09/09 09:05:24;;;;;;;29.92;17.65;;;;;;;;;;5058996;28;20031;-72
2021/09/09 09:08:00;;;;;;;27.40;15.27;;;;;;;;;;5068979;28;20017;-68
2021/09/09 09:10:27;;;;;;;31.95;16.25;;;;;;;;;;5057999;28;20064;-71
2021/09/09 09:12:53;;;;;;;36.10;19.08;;;;;;;;;;5058457;28;20029;-70
2021/09/09 09:15:21;;;;;;;32.97;18.33;;;;;;;;;;5058340;28;20050;-72
2021/09/09 09:17:58;;;;;;;30.52;17.80;;;;;;;;;;5058408;28;20025;-72
2021/09/09 09:20:27;;;;;;;32.53;16.52;;;;;;;;;;5058555;28;20042;-67
2021/09/09 09:22:54;;;;;;;30.65;17.15;;;;;;;;;;5057062;28;20467;-70
2021/09/09 09:25:40;;;;;;;33.22;17.10;;;;;;;;;;5058155;28;20025;-73
2021/09/09 09:28:06;;;;;;;30.52;19.70;;;;;;;;;;5057986;28;20021;-71
2021/09/09 09:30:32;;;;;;;35.25;17.98;;;;;;;;;;5058301;28;20025;-73
2021/09/09 09:33:00;;;;;;;33.10;17.25;;;;;;;;;;5057571;28;20471;-71
2021/09/09 09:35:27;;;;;;;34.80;18.13;;;;;;;;;;5058530;28;20060;-73
2021/09/09 09:37:53;;;;;;;34.17;18.42;;;;;;;;;;5059253;28;20029;-69
2021/09/09 09:40:23;;;;;;;34.90;19.08;;;;;;;;;;5058834;28;20036;-73
2021/09/09 09:42:49;;;;;;;34.15;18.20;;;;;;;;;;5058386;28;20380;-70
2021/09/09 09:45:16;;;;;;;34.38;18.85;;;;;;;;;;5058945;28;20036;-74
2021/09/09 09:47:42;;;;;;;32.65;17.50;;;;;;;;;;5057681;28;20025;-73
2021/09/09 09:50:21;;;;;;;26.80;15.77;;;;;;;;;;5058257;28;20029;-72
2021/09/09 09:52:48;;;;;;;25.48;13.88;;;;;;;;;;5068519;28;20421;-72
2021/09/09 09:55:14;;;;;;;21.98;10.80;;;;;;;;;;5057989;28;20056;-69
2021/09/09 09:57:56;;;;;;;18.10;11.63;;;;;;;;;;5068468;28;20064;-70
2021/09/09 10:00:22;;;;;;;20.60;12.18;;;;;;;;;;5076390;28;20378;-71
2021/09/09 10:02:49;;;;;;;26.55;13.57;;;;;;;;;;5076345;28;20041;-70
2021/09/09 10:05:15;;;;;;;25.90;14.30;;;;;;;;;;5076190;28;20020;-66
2021/09/09 10:07:41;;;;;;;16.77;9.95;;;;;;;;;;5075841;28;20054;-73
2021/09/09 10:10:08;;;;;;;14.57;8.43;;;;;;;;;;5059231;28;20021;-70
2021/09/09 10:12:34;;;;;;;14.35;8.00;;;;;;;;;;5075207;28;20027;-72
2021/09/09 10:15:01;;;;;;;17.90;8.93;;;;;;;;;;5075973;28;20016;-71
2021/09/09 10:17:27;;;;;;;15.25;8.27;;;;;;;;;;5076486;28;20081;-75
2021/09/09 10:19:54;;;;;;;13.95;7.55;;;;;;;;;;5075728;28;20545;-70
2021/09/09 10:22:21;;;;;;;10.85;6.97;;;;;;;;;;5076027;28;20027;-73
2021/09/09 10:24:51;;;;;;;10.90;6.78;;;;;;;;;;5075990;28;20031;-73
2021/09/09 10:27:26;;;;;;;13.80;7.88;;;;;;;;;;5076143;28;20021;-70
2021/09/09 10:30:05;;;;;;;14.30;7.78;;;;;;;;;;5058697;28;20048;-71
2021/09/09 10:32:37;;;;;;;11.38;6.80;;;;;;;;;;5059510;28;20040;-70
2021/09/09 10:35:19;;;;;;;13.75;7.85;;;;;;;;;;5056418;28;20083;-66
2021/09/09 10:37:47;;;;;;;11.55;7.05;;;;;;;;;;5055581;28;20368;-72
2021/09/09 10:40:39;;;;;;;12.00;6.82;;;;;;;;;;5055677;28;20113;-72
2021/09/09 10:43:07;;;;;;;11.35;7.40;;;;;;;;;;5053914;28;20400;-70
2021/09/09 10:45:37;;;;;;;6.88;4.78;;;;;;;;;;5055356;28;20056;-71
2021/09/09 10:48:04;;;;;;;8.57;5.35;;;;;;;;;;5055607;28;20024;-71
2021/09/09 10:50:30;;;;;;;7.45;6.03;;;;;;;;;;5055421;28;20507;-71
2021/09/09 10:53:00;;;;;;;8.20;5.55;;;;;;;;;;5055872;28;20033;-71
2021/09/09 10:55:28;;;;;;;11.25;5.57;;;;;;;;;;5055334;28;20028;-69
2021/09/09 10:58:17;;;;;;;12.70;5.47;;;;;;;;;;5055178;28;20025;-70
2021/09/09 11:00:52;;;;;;;6.88;4.72;;;;;;;;;;5057340;28;20044;-71
2021/09/09 11:03:38;;;;;;;7.25;5.05;;;;;;;;;;5055230;28;20407;-69
2021/09/09 11:06:09;;;;;;;8.57;4.90;;;;;;;;;;5055638;28;20028;-67
2021/09/09 11:08:35;;;;;;;5.15;3.60;;;;;;;;;;5055749;28;20025;-66
2021/09/09 11:11:02;;;;;;;4.65;3.70;;;;;;;;;;5055772;28;20021;-73
2021/09/09 11:13:29;;;;;;;4.30;3.53;;;;;;;;;;5059356;28;20077;-72
2021/09/09 11:15:55;;;;;;;4.10;3.42;;;;;;;;;;5063284;28;20076;-66
2021/09/09 11:18:25;;;;;;;5.35;4.32;;;;;;;;;;5055384;28;20027;-71
2021/09/09 11:21:00;;;;;;;7.20;3.70;;;;;;;;;;5058940;28;20103;-71
2021/09/09 11:23:26;;;;;;;4.97;3.03;;;;;;;;;;5059383;28;20032;-69
2021/09/09 11:25:52;;;;;;;4.65;2.90;;;;;;;;;;5058933;28;20028;-72
2021/09/09 11:28:19;;;;;;;4.55;2.88;;;;;;;;;;5072447;28;20035;-70
2021/09/09 11:31:02;;;;;;;4.68;3.42;;;;;;;;;;5059889;28;20044;-67
2021/09/09 11:33:29;;;;;;;5.57;3.90;;;;;;;;;;5059063;28;20025;-73
2021/09/09 11:36:01;;;;;;;5.50;3.33;;;;;;;;;;5058679;28;20036;-70
2021/09/09 11:38:33;;;;;;;4.63;2.63;;;;;;;;;;5058636;28;20052;-73
2021/09/09 11:41:10;;;;;;;7.25;5.15;;;;;;;;;;5062163;28;20332;-70
2021/09/09 11:43:36;;;;;;;9.35;5.30;;;;;;;;;;5058117;28;20094;-72
2021/09/09 11:46:03;;;;;;;10.45;5.50;;;;;;;;;;5058646;28;20029;-72
2021/09/09 11:48:29;;;;;;;9.35;5.43;;;;;;;;;;5058389;28;20379;-70
2021/09/09 11:50:55;;;;;;;7.93;5.18;;;;;;;;;;5058386;28;20025;-69
2021/09/09 11:53:22;;;;;;;6.43;5.20;;;;;;;;;;5058144;28;20029;-73
2021/09/09 11:55:49;;;;;;;7.55;5.07;;;;;;;;;;5058202;28;20104;-70
2021/09/09 11:58:34;;;;;;;6.10;4.65;;;;;;;;;;5058340;28;20021;-66
2021/09/09 12:01:01;;;;;;;7.95;4.57;;;;;;;;;;5038337;28;20025;-70
2021/09/09 12:03:27;;;;;;;6.18;4.30;;;;;;;;;;5060360;28;20178;-70
2021/09/09 12:05:53;;;;;;;5.95;4.15;;;;;;;;;;5060790;28;20048;-71
2021/09/09 12:08:20;;;;;;;4.70;3.60;;;;;;;;;;5057563;28;20071;-69
2021/09/09 12:10:46;;;;;;;7.53;3.63;;;;;;;;;;5055916;28;20025;-71
2021/09/09 12:13:12;;;;;;;7.35;3.67;;;;;;;;;;5057772;28;20028;-71
2021/09/09 12:15:38;;;;;;;3.63;2.90;;;;;;;;;;5057622;28;20032;-67
2021/09/09 12:18:11;;;;;;;4.90;3.33;;;;;;;;;;5057443;28;20067;-70
2021/09/09 12:20:38;;;;;;;5.55;3.80;;;;;;;;;;5057279;28;20539;-71
2021/09/09 12:23:04;;;;;;;6.95;3.97;;;;;;;;;;5057492;28;20033;-72
2021/09/09 12:25:38;;;;;;;5.75;4.28;;;;;;;;;;5057687;28;20025;-70
2021/09/09 12:28:04;;;;;;;9.07;4.43;;;;;;;;;;5057120;28;20099;-72
2021/09/09 12:30:34;;;;;;;7.22;5.00;;;;;;;;;;5056962;28;20056;-67
2021/09/09 12:33:21;;;;;;;6.72;4.10;;;;;;;;;;5057593;28;20033;-70
2021/09/09 12:36:01;;;;;;;7.07;4.25;;;;;;;;;;5057632;28;20388;-72
2021/09/09 12:38:31;;;;;;;6.63;4.25;;;;;;;;;;5058561;28;20028;-71
2021/09/09 12:40:57;;;;;;;9.15;4.75;;;;;;;;;;5057734;28;20029;-71
2021/09/09 12:43:31;;;;;;;6.85;3.95;;;;;;;;;;5057536;28;20029;-70
2021/09/09 12:45:58;;;;;;;5.80;4.07;;;;;;;;;;5057598;28;20021;-71
2021/09/09 12:48:24;;;;;;;6.90;3.70;;;;;;;;;;5057139;28;20052;-67
2021/09/09 12:51:10;;;;;;;5.32;4.25;;;;;;;;;;5057013;28;20024;-72
2021/09/09 12:53:37;;;;;;;4.75;3.65;;;;;;;;;;5058307;28;20475;-70
2021/09/09 12:56:10;;;;;;;6.18;4.45;;;;;;;;;;5057571;28;20108;-72
2021/09/09 12:58:36;;;;;;;5.55;3.22;;;;;;;;;;5060786;28;20424;-71
2021/09/09 13:01:03;;;;;;;4.47;3.03;;;;;;;;;;5061557;28;20087;-72
2021/09/09 13:03:31;;;;;;;4.85;3.28;;;;;;;;;;5069538;28;20048;-72
2021/09/09 13:05:58;;;;;;;3.05;2.30;;;;;;;;;;5059954;28;20112;-72
2021/09/09 13:08:24;;;;;;;3.53;2.05;;;;;;;;;;5058961;28;20025;-69
2021/09/09 13:10:50;;;;;;;4.47;2.20;;;;;;;;;;5058317;28;20480;-67
2021/09/09 13:13:16;;;;;;;3.70;2.20;;;;;;;;;;5055645;28;20040;-68
2021/09/09 13:15:43;;;;;;;3.67;2.75;;;;;;;;;;5058267;28;20049;-69
2021/09/09 13:18:09;;;;;;;3.55;2.42;;;;;;;;;;5058110;28;20048;-69
2021/09/09 13:20:35;;;;;;;4.05;2.80;;;;;;;;;;5059113;28;20024;-71
2021/09/09 13:23:05;;;;;;;3.17;2.40;;;;;;;;;;5062657;28;20067;-71
2021/09/09 13:25:31;;;;;;;5.57;2.47;;;;;;;;;;5057412;28;20021;-69
2021/09/09 13:27:58;;;;;;;4.60;2.58;;;;;;;;;;5057295;28;20028;-70
2021/09/09 13:30:24;;;;;;;4.68;2.35;;;;;;;;;;5057441;28;20021;-71
2021/09/09 13:32:50;;;;;;;2.83;2.08;;;;;;;;;;5057317;28;20025;-70
2021/09/09 13:35:17;;;;;;;2.33;2.00;;;;;;;;;;5057088;28;20025;-68
2021/09/09 13:37:43;;;;;;;3.42;2.67;;;;;;;;;;5057151;28;20374;-72
2021/09/09 13:40:09;;;;;;;3.65;2.22;;;;;;;;;;5056994;28;20100;-70
2021/09/09 13:42:35;;;;;;;2.25;1.90;;;;;;;;;;5054929;28;20118;-70
2021/09/09 13:45:01;;;;;;;2.17;1.98;;;;;;;;;;5055647;28;20052;-71
2021/09/09 13:47:28;;;;;;;2.17;1.80;;;;;;;;;;5056815;28;20436;-71
2021/09/09 13:49:54;;;;;;;2.15;1.80;;;;;;;;;;5056055;28;20021;-71
2021/09/09 13:52:20;;;;;;;2.72;1.80;;;;;;;;;;5056246;28;20494;-72
2021/09/09 13:54:46;;;;;;;3.28;2.00;;;;;;;;;;5055497;28;20032;-71
2021/09/09 13:57:12;;;;;;;3.65;2.05;;;;;;;;;;5055779;28;20108;-68
2021/09/09 13:59:39;;;;;;;3.38;1.70;;;;;;;;;;5055576;28;20057;-72
2021/09/09 14:02:05;;;;;;;3.30;1.90;;;;;;;;;;5055934;28;20492;-72
2021/09/09 14:04:31;;;;;;;1.90;1.70;;;;;;;;;;5055371;28;20087;-71
2021/09/09 14:06:58;;;;;;;2.22;1.95;;;;;;;;;;5054059;28;20104;-72
2021/09/09 14:09:24;;;;;;;1.50;1.40;;;;;;;;;;5055477;28;20147;-69
2021/09/09 14:11:50;;;;;;;3.95;1.63;;;;;;;;;;5055373;28;20033;-68
2021/09/09 14:14:16;;;;;;;3.58;1.80;;;;;;;;;;5055585;28;20162;-73
2021/09/09 14:16:42;;;;;;;2.70;1.70;;;;;;;;;;5055871;28;20040;-69
2021/09/09 14:19:08;;;;;;;1.10;1.10;;;;;;;;;;5055358;28;20033;-72
2021/09/09 14:21:34;;;;;;;1.88;1.50;;;;;;;;;;5055585;28;20037;-71
2021/09/09 14:24:00;;;;;;;1.65;1.55;;;;;;;;;;5056215;28;20026;-70
2021/09/09 14:26:26;;;;;;;1.60;1.40;;;;;;;;;;5055736;28;20044;-69